Time;durP1;ratioP1;P1;durP2;ratioP2;P2;SDS_P1;SDS_P2;PMS_P1;PMS_P2;Temp;Humidity;BMP_temperature;BMP_pressure;BME280_temperature;BME280_humidity;BME280_pressure;Samples;Min_cycle;Max_cycle;Signal;HPM_P1;HPM_P2
2021/06/24 00:00:51;;;;;;;;;;;;;;;18.23;61.83;101183.88;1582811;89;20147;-73
2021/06/24 00:03:17;;;;;;;;;;;;;;;18.23;61.94;101191.73;1585891;89;20171;-73
2021/06/24 00:05:43;;;;;;;;;;;;;;;18.23;61.88;101189.13;1598695;89;20188;-73
2021/06/24 00:08:10;;;;;;;;;;;;;;;18.21;61.84;101196.18;1624203;87;20197;-73
2021/06/24 00:10:38;;;;;;;;;;;;;;;18.18;61.87;101191.95;1627016;87;20447;-73
2021/06/24 00:13:05;;;;;;;;;;;;;;;18.18;61.97;101189.33;1626300;86;20275;-73
2021/06/24 00:15:31;;;;;;;;;;;;;;;18.18;62.00;101192.41;1633989;86;20356;-73
2021/06/24 00:17:57;;;;;;;;;;;;;;;18.17;62.00;101185.46;1608857;88;20191;-73
2021/06/24 00:20:24;;;;;;;;;;;;;;;18.12;61.79;101184.78;1639671;86;20175;-73
2021/06/24 00:22:51;;;;;;;;;;;;;;;18.02;61.84;101175.57;1610365;88;20199;-73
2021/06/24 00:25:17;;;;;;;;;;;;;;;17.94;61.87;101171.94;1603891;87;20193;-73
2021/06/24 00:27:43;;;;;;;;;;;;;;;17.92;61.90;101169.83;1645427;86;20241;-73
2021/06/24 00:30:11;;;;;;;;;;;;;;;17.89;61.87;101163.41;1632581;86;20407;-73
2021/06/24 00:32:37;;;;;;;;;;;;;;;17.82;61.97;101153.62;1634975;86;20100;-73
2021/06/24 00:35:03;;;;;;;;;;;;;;;17.78;62.04;101145.48;1635920;86;20104;-73
2021/06/24 00:37:30;;;;;;;;;;;;;;;17.79;62.18;101150.27;1642440;86;20140;-73
2021/06/24 00:39:56;;;;;;;;;;;;;;;17.78;62.07;101155.09;1640665;86;20128;-73
2021/06/24 00:42:24;;;;;;;;;;;;;;;17.69;62.11;101153.67;1590460;89;20114;-73
2021/06/24 00:44:50;;;;;;;;;;;;;;;17.64;62.21;101150.38;1618451;86;20192;-73
2021/06/24 00:47:16;;;;;;;;;;;;;;;17.64;62.29;101148.21;1626927;86;20102;-73
2021/06/24 00:49:42;;;;;;;;;;;;;;;17.63;62.33;101147.81;1630514;86;20238;-73
2021/06/24 00:52:08;;;;;;;;;;;;;;;17.62;62.36;101139.11;1633196;86;20799;-73
2021/06/24 00:54:34;;;;;;;;;;;;;;;17.61;62.38;101141.78;1633049;86;20182;-73
2021/06/24 00:57:00;;;;;;;;;;;;;;;17.60;62.44;101139.63;1626285;86;20234;-73
2021/06/24 00:59:27;;;;;;;;;;;;;;;17.60;62.42;101141.39;1635718;86;20163;-73
2021/06/24 01:01:53;;;;;;;;;;;;;;;17.59;62.46;101144.45;1627347;87;20188;-73
2021/06/24 01:04:22;;;;;;;;;;;;;;;17.57;62.47;101143.66;1625804;87;20187;-73
2021/06/24 01:06:49;;;;;;;;;;;;;;;17.51;62.42;101135.58;1644199;86;20432;-73
2021/06/24 01:09:15;;;;;;;;;;;;;;;17.49;62.54;101141.77;1637625;86;20138;-73
2021/06/24 01:11:41;;;;;;;;;;;;;;;17.47;62.51;101139.67;1634852;86;20103;-73
2021/06/24 01:14:11;;;;;;;;;;;;;;;17.43;62.60;101141.99;1624464;86;20144;-73
2021/06/24 01:16:37;;;;;;;;;;;;;;;17.42;62.65;101149.44;1637158;86;20139;-73
2021/06/24 01:19:04;;;;;;;;;;;;;;;17.40;62.68;101148.19;1615182;88;20141;-73
2021/06/24 01:21:30;;;;;;;;;;;;;;;17.39;62.72;101156.94;1645236;86;20159;-73
2021/06/24 01:23:56;;;;;;;;;;;;;;;17.37;62.77;101163.98;1612112;88;20112;-73
2021/06/24 01:26:22;;;;;;;;;;;;;;;17.36;62.79;101170.11;1647111;86;20752;-73
2021/06/24 01:28:48;;;;;;;;;;;;;;;17.36;62.80;101186.25;1634355;86;20155;-73
2021/06/24 01:31:16;;;;;;;;;;;;;;;17.34;62.79;101193.30;1634488;86;20128;-73
2021/06/24 01:33:42;;;;;;;;;;;;;;;17.35;62.92;101200.23;1637803;86;20114;-73
2021/06/24 01:36:09;;;;;;;;;;;;;;;17.36;62.91;101196.70;1636300;86;20108;-73
2021/06/24 01:38:35;;;;;;;;;;;;;;;17.32;62.83;101199.88;1604611;88;20119;-73
2021/06/24 01:41:02;;;;;;;;;;;;;;;17.29;62.96;101203.91;1643646;86;20107;-73
2021/06/24 01:43:28;;;;;;;;;;;;;;;17.29;63.15;101214.36;1618985;87;20416;-72
2021/06/24 01:45:56;;;;;;;;;;;;;;;17.34;63.14;101217.67;1633709;86;20140;-72
2021/06/24 01:48:23;;;;;;;;;;;;;;;17.37;63.06;101218.02;1635674;86;20144;-72
2021/06/24 01:50:50;;;;;;;;;;;;;;;17.36;63.04;101219.78;1651357;86;20124;-72
2021/06/24 01:53:16;;;;;;;;;;;;;;;17.38;63.12;101214.50;1646935;86;20134;-72
2021/06/24 01:55:43;;;;;;;;;;;;;;;17.37;63.10;101209.73;1648963;86;20098;-72
2021/06/24 01:58:12;;;;;;;;;;;;;;;17.39;63.19;101207.91;1645892;86;20406;-73
2021/06/24 02:00:42;;;;;;;;;;;;;;;17.42;63.28;101208.27;1630516;86;20188;-73
2021/06/24 02:03:08;;;;;;;;;;;;;;;17.42;63.34;101202.58;1632129;86;20145;-73
2021/06/24 02:05:34;;;;;;;;;;;;;;;17.45;63.39;101193.32;1638646;86;20227;-73
2021/06/24 02:08:01;;;;;;;;;;;;;;;17.47;63.38;101204.58;1647405;85;20132;-73
2021/06/24 02:10:27;;;;;;;;;;;;;;;17.47;63.26;101206.34;1608880;88;20246;-73
2021/06/24 02:12:52;;;;;;;;;;;;;;;17.44;63.33;101200.77;1634516;86;20189;-73
2021/06/24 02:15:18;;;;;;;;;;;;;;;17.38;63.32;101194.90;1629948;86;20210;-73
2021/06/24 02:17:44;;;;;;;;;;;;;;;17.38;63.41;101196.20;1625006;86;20222;-73
2021/06/24 02:20:14;;;;;;;;;;;;;;;17.36;63.41;101204.09;1622753;87;20289;-73
2021/06/24 02:22:40;;;;;;;;;;;;;;;17.36;63.51;101205.41;1639243;86;20156;-73
2021/06/24 02:25:08;;;;;;;;;;;;;;;17.39;63.59;101210.98;1637811;86;20142;-73
2021/06/24 02:27:34;;;;;;;;;;;;;;;17.36;63.49;101201.94;1646294;86;20137;-73
2021/06/24 02:30:00;;;;;;;;;;;;;;;17.32;63.61;101196.41;1626906;86;20139;-73
2021/06/24 02:32:26;;;;;;;;;;;;;;;17.33;63.62;101193.75;1634214;86;20170;-73
2021/06/24 02:34:52;;;;;;;;;;;;;;;17.37;63.68;101191.88;1620300;86;20137;-73
2021/06/24 02:37:19;;;;;;;;;;;;;;;17.40;63.69;101189.16;1629762;87;20137;-73
2021/06/24 02:39:45;;;;;;;;;;;;;;;17.42;63.70;101197.35;1602539;89;20132;-73
2021/06/24 02:42:11;;;;;;;;;;;;;;;17.40;63.69;101201.78;1630964;86;20167;-72
2021/06/24 02:44:38;;;;;;;;;;;;;;;17.32;63.53;101202.50;1632430;86;20178;-73
2021/06/24 02:47:04;;;;;;;;;;;;;;;17.25;63.78;101207.53;1627871;86;20190;-73
2021/06/24 02:49:30;;;;;;;;;;;;;;;17.27;63.95;101210.09;1599656;88;20231;-73
2021/06/24 02:51:56;;;;;;;;;;;;;;;17.32;63.91;101214.71;1608775;89;20261;-73
2021/06/24 02:54:22;;;;;;;;;;;;;;;17.30;64.02;101206.92;1610115;86;20268;-73
2021/06/24 02:56:48;;;;;;;;;;;;;;;17.35;64.09;101208.92;1622466;87;20305;-73
2021/06/24 02:59:14;;;;;;;;;;;;;;;17.40;64.09;101200.92;1630111;87;20238;-73
2021/06/24 03:01:40;;;;;;;;;;;;;;;17.45;64.11;101205.54;1610842;87;20300;-73
2021/06/24 03:04:06;;;;;;;;;;;;;;;17.49;64.23;101206.69;1637608;86;20289;-73
2021/06/24 03:06:37;;;;;;;;;;;;;;;17.52;64.24;101216.19;1609609;88;20187;-73
2021/06/24 03:09:05;;;;;;;;;;;;;;;17.55;64.25;101208.23;1623958;86;20199;-73
2021/06/24 03:11:31;;;;;;;;;;;;;;;17.60;64.25;101209.38;1636112;86;20107;-73
2021/06/24 03:13:57;;;;;;;;;;;;;;;17.64;64.25;101212.29;1635719;86;20124;-73
2021/06/24 03:16:23;;;;;;;;;;;;;;;17.66;64.20;101214.42;1614386;88;20763;-73
2021/06/24 03:18:49;;;;;;;;;;;;;;;17.69;64.21;101211.22;1609341;88;20110;-73
2021/06/24 03:21:18;;;;;;;;;;;;;;;17.68;64.04;101205.59;1611925;87;20116;-73
2021/06/24 03:23:44;;;;;;;;;;;;;;;17.70;64.15;101197.69;1603652;88;20120;-72
2021/06/24 03:26:10;;;;;;;;;;;;;;;17.70;64.12;101189.38;1625950;87;20192;-72
2021/06/24 03:28:36;;;;;;;;;;;;;;;17.67;64.18;101175.14;1620125;88;20228;-73
2021/06/24 03:31:02;;;;;;;;;;;;;;;17.66;64.10;101164.28;1598425;89;20479;-73
2021/06/24 03:33:28;;;;;;;;;;;;;;;17.63;64.10;101147.81;1612285;88;20190;-73
2021/06/24 03:35:54;;;;;;;;;;;;;;;17.60;64.14;101119.16;1579332;89;20237;-73
2021/06/24 03:38:20;;;;;;;;;;;;;;;17.57;64.07;101093.97;1624664;87;20184;-73
2021/06/24 03:40:47;;;;;;;;;;;;;;;17.54;64.15;101066.17;1600435;88;20285;-73
2021/06/24 03:43:13;;;;;;;;;;;;;;;17.51;64.16;101037.98;1619870;87;20190;-72
2021/06/24 03:45:40;;;;;;;;;;;;;;;17.48;64.21;101011.50;1597822;89;20813;-72
2021/06/24 03:48:07;;;;;;;;;;;;;;;17.45;64.13;101010.76;1616009;88;20172;-72
2021/06/24 03:50:35;;;;;;;;;;;;;;;17.43;64.37;101001.67;1626816;87;20213;-72
2021/06/24 03:53:01;;;;;;;;;;;;;;;17.44;64.45;100976.37;1617437;87;20126;-72
2021/06/24 03:55:42;;;;;;;;;;;;;;;17.45;64.48;100978.08;1603703;88;20205;-72
2021/06/24 03:58:04;;;;;;;;;;;;;;;17.47;64.69;100986.26;1592199;89;20156;-72
2021/06/24 04:00:31;;;;;;;;;;;;;;;17.53;64.73;100996.94;1591910;88;20148;-72
2021/06/24 04:02:57;;;;;;;;;;;;;;;17.56;64.75;100992.90;1624452;87;20147;-73
2021/06/24 04:05:24;;;;;;;;;;;;;;;17.61;64.92;100977.03;1599585;88;20211;-73
2021/06/24 04:07:50;;;;;;;;;;;;;;;17.63;64.75;100960.83;1619486;87;20120;-73
2021/06/24 04:10:16;;;;;;;;;;;;;;;17.64;64.66;100943.77;1597867;88;20139;-73
2021/06/24 04:12:42;;;;;;;;;;;;;;;17.64;64.96;100938.53;1600532;89;20135;-73
2021/06/24 04:15:08;;;;;;;;;;;;;;;17.65;65.02;100941.58;1600172;88;20190;-73
2021/06/24 04:17:34;;;;;;;;;;;;;;;17.72;65.22;100960.46;1607072;88;20113;-73
2021/06/24 04:20:01;;;;;;;;;;;;;;;17.77;65.24;100984.22;1601211;89;20115;-73
2021/06/24 04:22:26;;;;;;;;;;;;;;;17.82;65.17;100985.34;1577787;90;20761;-73
2021/06/24 04:24:53;;;;;;;;;;;;;;;17.81;65.16;100958.33;1592306;89;20172;-74
2021/06/24 04:27:19;;;;;;;;;;;;;;;17.79;65.31;100945.77;1612564;87;20177;-74
2021/06/24 04:29:45;;;;;;;;;;;;;;;17.77;65.58;100947.59;1600669;89;20193;-74
2021/06/24 04:32:12;;;;;;;;;;;;;;;17.79;65.56;100965.84;1597334;88;20156;-73
2021/06/24 04:34:38;;;;;;;;;;;;;;;17.76;65.70;100975.97;1598674;88;20230;-74
2021/06/24 04:37:04;;;;;;;;;;;;;;;17.75;65.73;100960.34;1623295;87;20203;-74
2021/06/24 04:39:30;;;;;;;;;;;;;;;17.74;65.71;100955.56;1599901;89;20837;-74
2021/06/24 04:41:56;;;;;;;;;;;;;;;17.72;65.96;100927.31;1601125;88;20234;-74
2021/06/24 04:44:22;;;;;;;;;;;;;;;17.72;66.15;100921.23;1623780;87;20239;-73
2021/06/24 04:46:48;;;;;;;;;;;;;;;17.68;66.34;100917.03;1623101;87;20196;-74
2021/06/24 04:49:16;;;;;;;;;;;;;;;17.67;66.25;100908.37;1620276;87;20124;-74
2021/06/24 04:51:43;;;;;;;;;;;;;;;17.69;66.42;100901.28;1621927;87;20622;-74
2021/06/24 04:54:09;;;;;;;;;;;;;;;17.75;66.58;100917.18;1630061;87;20131;-74
2021/06/24 04:56:35;;;;;;;;;;;;;;;17.83;66.63;100925.11;1620453;87;20258;-74
2021/06/24 04:59:01;;;;;;;;;;;;;;;17.92;66.78;100930.42;1626777;86;20945;-74
2021/06/24 05:01:26;;;;;;;;;;;;;;;18.03;66.79;100924.75;1623648;87;20236;-74
2021/06/24 05:03:53;;;;;;;;;;;;;;;18.11;66.82;100927.44;1625112;87;20137;-74
2021/06/24 05:06:19;;;;;;;;;;;;;;;18.20;66.88;100924.86;1627208;87;20559;-74
2021/06/24 05:08:45;;;;;;;;;;;;;;;18.31;66.90;100940.96;1617714;86;20484;-74
2021/06/24 05:11:11;;;;;;;;;;;;;;;18.43;66.98;100951.37;1611607;87;20212;-74
2021/06/24 05:13:37;;;;;;;;;;;;;;;18.55;66.97;100948.22;1583585;88;20851;-74
2021/06/24 05:16:06;;;;;;;;;;;;;;;18.68;66.94;100954.66;1608012;88;20510;-74
2021/06/24 05:18:34;;;;;;;;;;;;;;;18.78;66.96;100965.09;1634726;86;20139;-74
2021/06/24 05:21:00;;;;;;;;;;;;;;;18.89;66.87;100968.55;1613581;88;20449;-74
2021/06/24 05:23:27;;;;;;;;;;;;;;;18.95;66.77;100949.92;1640231;86;20225;-74
2021/06/24 05:25:53;;;;;;;;;;;;;;;18.97;66.59;100948.09;1624183;86;20330;-74
2021/06/24 05:28:19;;;;;;;;;;;;;;;19.01;66.77;100947.03;1634563;86;20494;-74
2021/06/24 05:30:46;;;;;;;;;;;;;;;19.06;66.62;100950.75;1638073;86;20893;-74
2021/06/24 05:33:13;;;;;;;;;;;;;;;19.06;66.52;100949.44;1631439;86;20438;-74
2021/06/24 05:35:40;;;;;;;;;;;;;;;19.05;66.67;100938.11;1639590;86;20196;-74
2021/06/24 05:38:11;;;;;;;;;;;;;;;19.10;66.83;100937.89;1634953;86;20179;-74
2021/06/24 05:40:34;;;;;;;;;;;;;;;19.17;66.80;100936.23;1622954;86;20496;-74
2021/06/24 05:43:00;;;;;;;;;;;;;;;19.25;66.99;100953.34;1608655;88;20844;-73
2021/06/24 05:45:27;;;;;;;;;;;;;;;19.37;67.07;100960.19;1612797;89;20123;-74
2021/06/24 05:47:55;;;;;;;;;;;;;;;19.49;67.03;100967.48;1611120;87;20508;-74
2021/06/24 05:50:26;;;;;;;;;;;;;;;19.58;66.89;100965.38;1633242;86;20569;-74
2021/06/24 05:52:54;;;;;;;;;;;;;;;19.63;66.90;100963.38;1612879;88;20204;-74
2021/06/24 05:55:47;;;;;;;;;;;;;;;19.71;66.97;100973.05;1633759;86;20211;-74
2021/06/24 05:57:49;;;;;;;;;;;;;;;19.78;66.90;100970.02;1627327;86;20544;-74
2021/06/24 06:00:15;;;;;;;;;;;;;;;19.84;66.84;100974.12;1640255;86;20306;-74
2021/06/24 06:02:41;;;;;;;;;;;;;;;19.84;66.76;100976.29;1633956;86;20529;-74
2021/06/24 06:05:08;;;;;;;;;;;;;;;19.90;66.89;100978.23;1625720;86;20467;-74
2021/06/24 06:07:34;;;;;;;;;;;;;;;19.96;66.79;100980.55;1639507;86;20189;-74
2021/06/24 06:10:00;;;;;;;;;;;;;;;20.00;66.85;100986.05;1630742;86;21125;-74
2021/06/24 06:12:28;;;;;;;;;;;;;;;20.05;66.85;100986.20;1620133;86;20798;-74
2021/06/24 06:14:54;;;;;;;;;;;;;;;20.11;66.80;100992.93;1612454;88;20187;-74
2021/06/24 06:17:20;;;;;;;;;;;;;;;20.11;66.89;100999.03;1612474;89;20568;-73
2021/06/24 06:19:46;;;;;;;;;;;;;;;20.17;66.90;101008.38;1594097;89;20584;-73
2021/06/24 06:22:12;;;;;;;;;;;;;;;20.19;66.90;101009.16;1612214;88;20154;-74
2021/06/24 06:24:39;;;;;;;;;;;;;;;20.21;66.83;101012.55;1612391;89;20492;-74
2021/06/24 06:27:06;;;;;;;;;;;;;;;20.20;66.91;101008.23;1635646;86;20188;-74
2021/06/24 06:29:32;;;;;;;;;;;;;;;20.21;66.84;101007.77;1632031;86;20141;-74
2021/06/24 06:31:58;;;;;;;;;;;;;;;20.20;66.82;101000.35;1625871;86;20439;-74
2021/06/24 06:34:24;;;;;;;;;;;;;;;20.21;66.91;101005.99;1639561;86;20160;-74
2021/06/24 06:36:50;;;;;;;;;;;;;;;20.23;66.91;101005.91;1613057;87;20469;-74
2021/06/24 06:39:16;;;;;;;;;;;;;;;20.26;66.98;101006.61;1611241;87;20220;-74
2021/06/24 06:41:42;;;;;;;;;;;;;;;20.32;66.99;101008.05;1624214;86;20540;-74
2021/06/24 06:44:08;;;;;;;;;;;;;;;20.37;66.92;101001.64;1608183;89;20185;-75
2021/06/24 06:46:34;;;;;;;;;;;;;;;20.35;66.78;101003.50;1614224;87;20578;-75
2021/06/24 06:49:00;;;;;;;;;;;;;;;20.27;66.78;101000.44;1639326;86;20448;-75
2021/06/24 06:51:26;;;;;;;;;;;;;;;20.25;66.99;100997.03;1590807;89;20269;-75
2021/06/24 06:53:52;;;;;;;;;;;;;;;20.29;67.03;100995.08;1604363;88;20285;-75
2021/06/24 06:56:18;;;;;;;;;;;;;;;20.34;67.04;100994.38;1612607;89;20497;-75
2021/06/24 06:58:44;;;;;;;;;;;;;;;20.34;67.03;101004.42;1634211;86;20208;-75
2021/06/24 07:01:10;;;;;;;;;;;;;;;20.35;67.03;101006.59;1628664;86;20578;-75
2021/06/24 07:03:36;;;;;;;;;;;;;;;20.35;67.04;101007.90;1634678;86;20230;-75
2021/06/24 07:06:02;;;;;;;;;;;;;;;20.35;67.09;101002.19;1612410;88;20205;-75
2021/06/24 07:08:28;;;;;;;;;;;;;;;20.31;66.91;101000.63;1629995;86;20202;-75
2021/06/24 07:10:54;;;;;;;;;;;;;;;20.28;67.00;101010.45;1637620;86;20196;-75
2021/06/24 07:13:20;;;;;;;;;;;;;;;20.24;67.01;101013.72;1632792;86;20198;-75
2021/06/24 07:15:47;;;;;;;;;;;;;;;20.20;67.13;101012.63;1637327;86;20229;-75
2021/06/24 07:18:13;;;;;;;;;;;;;;;20.21;67.21;101011.70;1641669;86;20195;-75
2021/06/24 07:20:39;;;;;;;;;;;;;;;20.22;67.11;101014.26;1625635;87;20215;-75
2021/06/24 07:23:05;;;;;;;;;;;;;;;20.18;67.13;101011.39;1626051;87;20152;-75
2021/06/24 07:25:31;;;;;;;;;;;;;;;20.19;67.22;101009.62;1618727;87;20274;-75
2021/06/24 07:27:57;;;;;;;;;;;;;;;20.21;67.24;101014.33;1623582;87;20447;-75
2021/06/24 07:30:24;;;;;;;;;;;;;;;20.22;67.26;101027.39;1625019;87;20192;-75
2021/06/24 07:32:50;;;;;;;;;;;;;;;20.25;67.36;101025.08;1630844;87;20195;-74
2021/06/24 07:35:16;;;;;;;;;;;;;;;20.30;67.34;101026.52;1630671;87;20223;-74
2021/06/24 07:37:44;;;;;;;;;;;;;;;20.33;67.21;101020.26;1629967;87;20193;-74
2021/06/24 07:40:11;;;;;;;;;;;;;;;20.36;67.28;101013.08;1605043;88;20165;-74
2021/06/24 07:42:37;;;;;;;;;;;;;;;20.42;67.36;101011.48;1637133;86;20229;-74
2021/06/24 07:45:04;;;;;;;;;;;;;;;20.53;67.42;101006.16;1637833;86;20206;-74
2021/06/24 07:47:30;;;;;;;;;;;;;;;20.63;67.32;101006.07;1623770;86;20149;-75
2021/06/24 07:49:56;;;;;;;;;;;;;;;20.75;67.42;101012.86;1630708;86;20198;-74
2021/06/24 07:52:22;;;;;;;;;;;;;;;20.88;67.42;101019.61;1633207;86;20278;-74
2021/06/24 07:54:48;;;;;;;;;;;;;;;21.03;67.32;101025.38;1633034;86;20476;-74
2021/06/24 07:57:14;;;;;;;;;;;;;;;21.13;67.18;101029.69;1630462;86;20254;-74
2021/06/24 07:59:40;;;;;;;;;;;;;;;21.17;67.23;101026.44;1633107;86;20208;-74
2021/06/24 08:02:06;;;;;;;;;;;;;;;21.22;67.16;101027.92;1633196;86;20203;-73
2021/06/24 08:04:33;;;;;;;;;;;;;;;21.31;67.13;101026.58;1632481;86;20199;-73
2021/06/24 08:06:59;;;;;;;;;;;;;;;21.37;67.11;101028.38;1639074;86;20204;-73
2021/06/24 08:09:25;;;;;;;;;;;;;;;21.50;67.28;101031.20;1624319;86;20192;-74
2021/06/24 08:11:51;;;;;;;;;;;;;;;21.67;67.30;101018.42;1627919;86;20196;-74
2021/06/24 08:14:17;;;;;;;;;;;;;;;21.92;67.21;101020.03;1634032;86;20196;-74
2021/06/24 08:16:43;;;;;;;;;;;;;;;22.12;66.97;101013.66;1610838;88;20211;-74
2021/06/24 08:19:09;;;;;;;;;;;;;;;22.31;67.07;101012.13;1612526;88;20203;-74
2021/06/24 08:21:36;;;;;;;;;;;;;;;22.44;66.78;101017.03;1606175;89;20178;-74
2021/06/24 08:24:02;;;;;;;;;;;;;;;22.50;66.81;101025.05;1632782;86;20219;-74
2021/06/24 08:26:28;;;;;;;;;;;;;;;22.51;66.57;101022.32;1609930;87;20203;-74
2021/06/24 08:28:54;;;;;;;;;;;;;;;22.51;66.73;101019.69;1646222;86;20229;-74
2021/06/24 08:31:20;;;;;;;;;;;;;;;22.63;66.79;101004.46;1630779;86;20202;-74
2021/06/24 08:33:46;;;;;;;;;;;;;;;22.79;66.70;101007.06;1638477;86;20199;-74
2021/06/24 08:36:13;;;;;;;;;;;;;;;22.96;66.57;100999.41;1611964;88;20209;-74
2021/06/24 08:38:39;;;;;;;;;;;;;;;23.14;66.58;101004.88;1612470;89;20191;-74
2021/06/24 08:41:05;;;;;;;;;;;;;;;23.18;66.16;101006.84;1609498;89;20239;-74
2021/06/24 08:43:31;;;;;;;;;;;;;;;23.17;66.18;101001.20;1639525;86;20188;-73
2021/06/24 08:46:02;;;;;;;;;;;;;;;23.22;66.21;101001.75;1634066;86;20183;-73
2021/06/24 08:48:35;;;;;;;;;;;;;;;23.28;66.22;100993.45;1634067;86;20205;-73
2021/06/24 08:51:02;;;;;;;;;;;;;;;23.33;66.10;100998.83;1634666;86;20204;-73
2021/06/24 08:53:30;;;;;;;;;;;;;;;23.40;65.98;100997.94;1609202;89;20111;-73
2021/06/24 08:55:56;;;;;;;;;;;;;;;23.50;65.99;100988.48;1607927;89;20189;-74
2021/06/24 08:58:24;;;;;;;;;;;;;;;23.48;65.85;100993.48;1634432;86;20191;-74
2021/06/24 09:00:51;;;;;;;;;;;;;;;23.47;65.84;100994.44;1635616;86;20156;-75
2021/06/24 09:03:25;;;;;;;;;;;;;;;23.53;65.83;100987.00;1639691;86;20111;-74
2021/06/24 09:05:57;;;;;;;;;;;;;;;23.57;65.71;100990.30;1635208;86;20136;-74
2021/06/24 09:08:36;;;;;;;;;;;;;;;23.62;65.63;100982.45;1633363;86;20142;-74
2021/06/24 09:11:20;;;;;;;;;;;;;;;23.71;65.58;100978.38;1612969;88;20185;-74
2021/06/24 09:14:04;;;;;;;;;;;;;;;23.84;65.49;100979.74;1608820;89;20192;-74
2021/06/24 09:16:33;;;;;;;;;;;;;;;23.93;65.32;100979.11;1633618;86;20139;-74
2021/06/24 09:19:14;;;;;;;;;;;;;;;24.01;65.34;100980.77;1633747;86;20216;-74
2021/06/24 09:21:41;;;;;;;;;;;;;;;24.01;65.19;100975.48;1636201;86;20235;-74
2021/06/24 09:24:26;;;;;;;;;;;;;;;24.05;65.28;100975.19;1612159;87;20148;-74
2021/06/24 09:26:52;;;;;;;;;;;;;;;24.09;65.04;100974.51;1607329;86;20221;-73
2021/06/24 09:29:19;;;;;;;;;;;;;;;24.19;65.17;100982.20;1612488;88;20220;-74
2021/06/24 09:31:51;;;;;;;;;;;;;;;24.34;65.08;100988.28;1646509;86;20166;-74
2021/06/24 09:34:18;;;;;;;;;;;;;;;24.46;64.94;100989.22;1632175;86;20436;-74
2021/06/24 09:36:49;;;;;;;;;;;;;;;24.62;64.89;100986.75;1634534;86;20183;-75
2021/06/24 09:39:24;;;;;;;;;;;;;;;24.90;65.02;100979.55;1628402;87;20112;-75
2021/06/24 09:42:02;;;;;;;;;;;;;;;25.24;64.76;100989.93;1643725;86;20222;-74
2021/06/24 09:44:29;;;;;;;;;;;;;;;25.42;64.66;100980.67;1634654;86;20604;-74
2021/06/24 09:46:56;;;;;;;;;;;;;;;25.56;64.42;100972.55;1634907;86;20221;-74
2021/06/24 09:49:31;;;;;;;;;;;;;;;25.72;64.28;100979.77;1618796;86;20205;-74
2021/06/24 09:51:58;;;;;;;;;;;;;;;25.78;63.88;100973.66;1610592;88;20187;-74
2021/06/24 09:54:37;;;;;;;;;;;;;;;25.65;63.87;100975.88;1631866;86;20212;-74
2021/06/24 09:57:05;;;;;;;;;;;;;;;25.48;63.69;100972.73;1633851;86;20148;-74
2021/06/24 09:59:39;;;;;;;;;;;;;;;25.38;64.03;100969.94;1632862;87;20100;-74
2021/06/24 10:02:08;;;;;;;;;;;;;;;25.32;64.12;100965.92;1606209;88;20133;-74
2021/06/24 10:04:34;;;;;;;;;;;;;;;25.32;63.98;100963.28;1638336;86;20141;-74
2021/06/24 10:07:02;;;;;;;;;;;;;;;25.37;63.94;100969.56;1616972;87;20103;-74
2021/06/24 10:09:29;;;;;;;;;;;;;;;25.42;63.88;100963.47;1619101;86;20134;-74
2021/06/24 10:11:56;;;;;;;;;;;;;;;25.39;63.78;100964.53;1613536;89;20145;-74
2021/06/24 10:14:22;;;;;;;;;;;;;;;25.22;63.66;100970.66;1613737;89;20108;-74
2021/06/24 10:16:53;;;;;;;;;;;;;;;25.14;63.74;100971.69;1604312;88;20138;-74
2021/06/24 10:19:25;;;;;;;;;;;;;;;25.15;63.78;100969.41;1616303;86;20137;-74
2021/06/24 10:21:55;;;;;;;;;;;;;;;25.05;63.58;100979.33;1629260;86;20232;-74
2021/06/24 10:24:37;;;;;;;;;;;;;;;24.98;63.54;100975.89;1629446;86;20100;-74
2021/06/24 10:27:08;;;;;;;;;;;;;;;24.83;63.29;100975.16;1626799;86;20113;-75
2021/06/24 10:29:43;;;;;;;;;;;;;;;24.77;63.47;100978.71;1613840;88;20106;-75
2021/06/24 10:32:28;;;;;;;;;;;;;;;24.70;63.44;100985.75;1624782;86;20124;-75
2021/06/24 10:34:54;;;;;;;;;;;;;;;24.63;63.42;100989.77;1572137;90;20149;-75
2021/06/24 10:37:23;;;;;;;;;;;;;;;24.59;63.44;100982.14;1555787;90;20147;-75
2021/06/24 10:39:51;;;;;;;;;;;;;;;24.59;63.43;100982.14;1566781;90;20113;-75
2021/06/24 10:42:17;;;;;;;;;;;;;;;24.61;63.39;100980.24;1572875;90;20151;-73
2021/06/24 10:44:48;;;;;;;;;;;;;;;24.55;63.29;100984.62;1573514;90;20150;-74
2021/06/24 10:47:29;;;;;;;;;;;;;;;24.47;63.33;100977.22;1574987;90;20176;-75
2021/06/24 10:49:55;;;;;;;;;;;;;;;24.46;63.32;100982.13;1575001;90;20159;-75
2021/06/24 10:52:26;;;;;;;;;;;;;;;24.46;63.32;100977.33;1565500;90;20105;-75
2021/06/24 10:54:54;;;;;;;;;;;;;;;24.36;63.11;100979.30;1571537;90;20162;-75
2021/06/24 10:57:36;;;;;;;;;;;;;;;24.30;63.17;100982.83;1565828;90;20183;-75
2021/06/24 11:00:32;;;;;;;;;;;;;;;24.19;63.12;100979.55;1567377;90;32925;-75
2021/06/24 11:02:59;;;;;;;;;;;;;;;24.15;63.27;100982.03;1571304;90;20212;-75
2021/06/24 11:05:35;;;;;;;;;;;;;;;24.23;63.31;100978.88;1558886;89;20723;-75
2021/06/24 11:08:13;;;;;;;;;;;;;;;24.29;63.13;100989.06;1564963;89;20217;-74
2021/06/24 11:11:00;;;;;;;;;;;;;;;24.14;62.87;100982.98;1613224;87;20159;-75
2021/06/24 11:13:37;;;;;;;;;;;;;;;24.01;62.97;100982.94;1629122;87;20194;-74
2021/06/24 11:16:06;;;;;;;;;;;;;;;24.01;63.15;100980.77;1627419;87;20515;-75
2021/06/24 11:18:39;;;;;;;;;;;;;;;24.00;63.20;100982.57;1630870;86;20192;-74
2021/06/24 11:21:13;;;;;;;;;;;;;;;24.00;63.05;100982.57;1607341;89;20420;-74
2021/06/24 11:23:48;;;;;;;;;;;;;;;23.98;63.18;100981.83;1612574;89;20627;-74
2021/06/24 11:26:21;;;;;;;;;;;;;;;24.04;63.16;100979.25;1627673;86;20135;-73
2021/06/24 11:29:02;;;;;;;;;;;;;;;24.07;62.97;100981.69;1634782;86;20136;-73
2021/06/24 11:31:43;;;;;;;;;;;;;;;23.99;62.81;100972.10;1630910;86;20222;-74
2021/06/24 11:36:52;;;;;;;;;;;;;;;24.10;62.97;100974.88;1608874;88;20179;-74
2021/06/24 11:39:32;;;;;;;;;;;;;;;24.13;62.72;100974.67;1608166;88;20217;-74
2021/06/24 11:42:00;;;;;;;;;;;;;;;24.07;62.90;100971.97;1638921;86;20181;-73
2021/06/24 11:44:28;;;;;;;;;;;;;;;24.13;62.85;100972.51;1612205;88;20211;-74
2021/06/24 11:47:00;;;;;;;;;;;;;;;24.19;62.92;100967.66;1612843;87;20330;-74
2021/06/24 12:00:27;;;;;;;;;;;;;;;24.29;62.93;100956.03;1611292;87;20453;-74
2021/06/24 12:00:55;;;;;;;;;;;;;;;24.67;62.58;100954.22;1595583;89;20108;-74
2021/06/24 12:03:19;;;;;;;;;;;;;;;24.68;62.58;100953.27;1633766;86;20116;-74
2021/06/24 12:05:53;;;;;;;;;;;;;;;24.80;62.68;100953.38;1635480;86;20136;-74
2021/06/24 12:08:23;;;;;;;;;;;;;;;24.93;62.65;100955.53;1626475;87;20116;-74
2021/06/24 12:10:50;;;;;;;;;;;;;;;24.88;62.42;100958.97;1602607;88;20114;-74
2021/06/24 12:13:35;;;;;;;;;;;;;;;24.83;62.50;100960.61;1634682;86;20437;-75
2021/06/24 12:16:01;;;;;;;;;;;;;;;24.67;62.13;100966.13;1634158;86;20171;-74
2021/06/24 12:18:34;;;;;;;;;;;;;;;24.46;62.27;100958.34;1622156;88;20097;-74
2021/06/24 12:21:06;;;;;;;;;;;;;;;24.28;62.24;100954.34;1612164;88;20108;-74
2021/06/24 12:23:44;;;;;;;;;;;;;;;24.13;62.41;100955.33;1614356;87;20112;-74
2021/06/24 12:26:12;;;;;;;;;;;;;;;24.01;62.55;100951.71;1602570;89;20112;-74
2021/06/24 12:28:38;;;;;;;;;;;;;;;23.98;62.59;100957.20;1619751;88;20141;-74
2021/06/24 12:31:07;;;;;;;;;;;;;;;23.95;62.37;100958.72;1626072;87;20130;-74
2021/06/24 12:33:33;;;;;;;;;;;;;;;23.81;62.42;100957.50;1631927;86;20130;-74
2021/06/24 12:35:59;;;;;;;;;;;;;;;23.73;62.53;100963.28;1598717;89;20114;-74
2021/06/24 12:38:27;;;;;;;;;;;;;;;23.73;62.56;100960.64;1621260;87;20130;-74
2021/06/24 12:40:58;;;;;;;;;;;;;;;23.71;62.67;100956.78;1618000;87;20101;-74
2021/06/24 12:43:28;;;;;;;;;;;;;;;23.73;62.62;100954.88;1625943;87;20114;-73
2021/06/24 12:45:58;;;;;;;;;;;;;;;23.75;62.59;100951.67;1623699;87;20442;-73
2021/06/24 12:48:32;;;;;;;;;;;;;;;23.81;62.54;100948.25;1619590;88;20184;-73
2021/06/24 12:51:17;;;;;;;;;;;;;;;23.90;62.68;100950.29;1608624;88;20467;-73